首页
METAR-TAF:

METAR-TAF

机场 :

Oshawa Executive Airport

奧沙華, 安大略省, 加拿大

纬度: 43-55-22N, 经度: 78-53-48W, 海拔: 140米

当前天气观测

该预报发布于37分钟前的21:00 UTC
风速4节,风向南转南东,在东南南转西南之间变化
温度 24°C
湿度 54%
气压 1007 hPa
能見度: 14.5公里
天空无云

METAR: CYOO 192100Z AUTO 16004KT 130V210 9SM CLR 24/14 A2973 RMK SLP068 DENSITY ALT 1800FT

时间: 17:37 (21:37 UTC)

预报

该预报发布于1小时和58分钟前的19:39 UTC
预报有效从19日的 20点(UTC)到 20日的 08点(UTC)
风速6节,风向东南
能見度: 10公里
散云层高于5000英尺
阴天层高于14000英尺
短暂存在
从 19日的 20点(UTC)到 19日的 24点(UTC)
能見度: 10公里
多云层高于5000英尺
阴天层高于14000英尺
小阵雨
成为
从 19日的 20点(UTC)到 19日的 22点(UTC)
风速7节,风向
从 20日的 0000点(UTC)
风速7节,风向
能見度: 10公里
多云层高于7000英尺

TAF: CYOO 191939Z 1920/2008 14006KT P6SM SCT050 OVC140 TEMPO 1920/1924 P6SM -SHRA BKN050 OVC140 BECMG 1920/1922 01007KT FM200000 36007KT P6SM BKN070 RMK FCST BASED ON AUTO OBS. NXT FCST BY 200200Z

超过4000个机场的气象观测和天气预报(METAR&TAF报告)。

可查询的气象台以黄色和红色小点在地图上表示。

将鼠标移到小点上方,可查看气象台名称。

然后点击查看天气观测和预报。

如需切换地图:点击带黑十字的绿色按钮放大地图;点击带横线的绿色按钮缩小地图;或者点击绿色箭头查看邻近地区的地图。


METAR-TAF: